Littleton, CO (80120)

7:41 AM MDT on July 24, 2016 (GMT -0600)
Arapahoe Community College | | Change Station

Elev 5371 ft 39.61 °N, 105.02 °W | Updated 4 minutes ago

Mostly Cloudy
Mostly Cloudy
66.9 °F
Feels Like 66.9 °F
N
0.4
Wind Variable Wind from SW
Gusts 1.6 mph

Today
High -- | Low -- °F
--% Chance of Precip.
Yesterday
High -- | Low -- °F
Precip. -- in
Pressure 29.96 in
Visibility 10.0 miles
Clouds Few 8000 ft
Scattered Clouds 13000 ft
Mostly Cloudy 22000 ft
Dew Point 56 °F
Humidity 68%
Rainfall Not available.
Snow Depth Not available.
5:52 AM 8:19 PM
Waning Gibbous, 76% visible
METAR KAPA 241253Z 20006KT 10SM FEW080 SCT130 BKN220 20/08 A3020 RMK AO2 SLP146 VIRGA SW AND NW-NE T02000083
Pressure 29.96 in
Visibility 10.0 miles
Clouds Few 8000 ft
Scattered Clouds 13000 ft
Mostly Cloudy 22000 ft
Dew Point 56 °F
Humidity 68%
Rainfall Not available.
Snow Depth Not available.
5:52 AM 8:19 PM
Waning Gibbous, 76% visible
METAR KAPA 241253Z 20006KT 10SM FEW080 SCT130 BKN220 20/08 A3020 RMK AO2 SLP146 VIRGA SW AND NW-NE T02000083

10-Day Weather Forecast

Almanac

Astronomy

Jul. 24, 2016 Rise Set
Actual Time
Civil Twilight
Nautical Twilight
Astronomical Twilight
Moon
Length of Visible Light
Length of Day
Tomorrow will be .
, % of the Moon is Illuminated

Today's Extremes

State Highs State Lows

Community

WunderPhotos

Upload Photos

1,927,057 photos uploaded!

WunderBlog® & News

Nearby

Air Quality

  Air Quality AQ Index Pollutant
Not available.

Snow Depth

Station Depth Elevation

Earthquake Activity

City Distance Mag. Time & Date
Minimum magnitude displayed is 2.5.

Coastal Water Temperatures

Place Temperature

Stations

Nearby Weather Stations

Station Location Temp. Windchill Dew Point Humidity Wind Precip. Elev Updated Type
                   

Watches & Warnings

There are currently no watches in effect.